LHT9MR EDDE-EDDC
Flight info
| Callsign | LHT9MR |
|---|---|
| Flight time | 0h 18m |
| Altitude | 15000 |
| Route | LASTO1C LASTO T212 RELKO T278 NOTGO L620 BESIP Q240 DRN |
| Aircraft | A20N/M-SDE2E3FGHIRWXY/LB1 |
Departure
| Time | 2026-05-08 00:51 |
|---|---|
| Airport | Erfurt-Weimar Airport (EDDE) |
Arrival
| Time | 2026-05-08 01:10 |
|---|---|
| Airport | Dresden Airport (EDDC) |
| Time | Latitude | Longitude | Altitude | Speed | Heading |
|---|---|---|---|---|---|
| 2026-05-08 00:46 | 50.97629 | 10.96012 | 1025 ft | 0 kts | 287° |
| 2026-05-08 00:47 | 50.97630 | 10.96007 | 1025 ft | 1 kts | 287° |
| 2026-05-08 00:47 | 50.97635 | 10.95986 | 1026 ft | 3 kts | 293° |
| 2026-05-08 00:47 | 50.97656 | 10.95946 | 1025 ft | 6 kts | 324° |
| 2026-05-08 00:48 | 50.97714 | 10.95938 | 1025 ft | 11 kts | 11° |
| 2026-05-08 00:48 | 50.97765 | 10.95848 | 1024 ft | 15 kts | 278° |
| 2026-05-08 00:48 | 50.97778 | 10.95660 | 1024 ft | 20 kts | 276° |
| 2026-05-08 00:48 | 50.97796 | 10.95417 | 1025 ft | 24 kts | 277° |
| 2026-05-08 00:49 | 50.97814 | 10.95193 | 1026 ft | 17 kts | 277° |
| 2026-05-08 00:49 | 50.97831 | 10.94978 | 1029 ft | 22 kts | 277° |
| 2026-05-08 00:49 | 50.97894 | 10.94794 | 1030 ft | 19 kts | 279° |
| 2026-05-08 00:49 | 50.97912 | 10.94565 | 1030 ft | 23 kts | 277° |
| 2026-05-08 00:50 | 50.97935 | 10.94287 | 1031 ft | 27 kts | 278° |
| 2026-05-08 00:50 | 50.98016 | 10.94100 | 1031 ft | 19 kts | 327° |
| 2026-05-08 00:50 | 50.98078 | 10.94018 | 1030 ft | 13 kts | 331° |
| 2026-05-08 00:50 | 50.98123 | 10.94026 | 1030 ft | 3 kts | 90° |
| 2026-05-08 00:51 | 50.98103 | 10.94287 | 1031 ft | 73 kts | 97° |
| 2026-05-08 00:51 | 50.97996 | 10.95666 | 1024 ft | 170 kts | 97° |
| 2026-05-08 00:51 | 50.97813 | 10.97814 | 1328 ft | 216 kts | 97° |
| 2026-05-08 00:51 | 50.97602 | 11.00386 | 2320 ft | 250 kts | 97° |
| 2026-05-08 00:52 | 50.97393 | 11.03221 | 3728 ft | 268 kts | 96° |
| 2026-05-08 00:52 | 50.97192 | 11.06216 | 5429 ft | 273 kts | 96° |
| 2026-05-08 00:52 | 50.97009 | 11.09221 | 6987 ft | 286 kts | 95° |
| 2026-05-08 00:52 | 50.96828 | 11.12495 | 8123 ft | 311 kts | 95° |
| 2026-05-08 00:53 | 50.96633 | 11.16084 | 9122 ft | 337 kts | 94° |
| 2026-05-08 00:53 | 50.96424 | 11.19924 | 9917 ft | 362 kts | 95° |
| 2026-05-08 00:53 | 50.96223 | 11.24047 | 10500 ft | 387 kts | 93° |
| 2026-05-08 00:53 | 50.96097 | 11.28397 | 11131 ft | 405 kts | 91° |
| 2026-05-08 00:54 | 50.96030 | 11.32900 | 12106 ft | 412 kts | 90° |
| 2026-05-08 00:54 | 50.95993 | 11.37517 | 13108 ft | 419 kts | 90° |
| 2026-05-08 00:54 | 50.95965 | 11.42130 | 14066 ft | 426 kts | 90° |
| 2026-05-08 00:54 | 50.95936 | 11.46878 | 14987 ft | 431 kts | 90° |
| 2026-05-08 00:55 | 50.95904 | 11.51666 | 15899 ft | 437 kts | 90° |
| 2026-05-08 00:55 | 50.95868 | 11.56510 | 16588 ft | 442 kts | 90° |
| 2026-05-08 00:55 | 50.95828 | 11.61406 | 16754 ft | 443 kts | 90° |
| 2026-05-08 00:55 | 50.95787 | 11.66266 | 16756 ft | 444 kts | 90° |
| 2026-05-08 00:56 | 50.95742 | 11.71162 | 16756 ft | 443 kts | 91° |
| 2026-05-08 00:56 | 50.95696 | 11.76055 | 16757 ft | 443 kts | 91° |
| 2026-05-08 00:56 | 50.95648 | 11.80942 | 16758 ft | 443 kts | 91° |
| 2026-05-08 00:56 | 50.95598 | 11.85853 | 16756 ft | 443 kts | 91° |
| 2026-05-08 00:57 | 50.95546 | 11.90686 | 16753 ft | 443 kts | 91° |
| 2026-05-08 00:57 | 50.95491 | 11.95588 | 16756 ft | 443 kts | 91° |
| 2026-05-08 00:57 | 50.95434 | 12.00501 | 16755 ft | 443 kts | 91° |
| 2026-05-08 00:57 | 50.95376 | 12.05428 | 16974 ft | 448 kts | 91° |
| 2026-05-08 00:58 | 50.95315 | 12.10329 | 17120 ft | 449 kts | 91° |
| 2026-05-08 00:58 | 50.95251 | 12.15351 | 17109 ft | 450 kts | 91° |
| 2026-05-08 00:58 | 50.95185 | 12.20323 | 17124 ft | 450 kts | 91° |
| 2026-05-08 00:58 | 50.95118 | 12.25227 | 17124 ft | 450 kts | 91° |
| 2026-05-08 00:59 | 50.95048 | 12.30194 | 17121 ft | 450 kts | 91° |
| 2026-05-08 00:59 | 50.94993 | 12.35151 | 17124 ft | 450 kts | 89° |
| 2026-05-08 00:59 | 50.95153 | 12.40110 | 17128 ft | 449 kts | 85° |
| 2026-05-08 00:59 | 50.95421 | 12.45052 | 17132 ft | 450 kts | 84° |
| 2026-05-08 01:00 | 50.95695 | 12.50025 | 17134 ft | 450 kts | 85° |
| 2026-05-08 01:00 | 50.95944 | 12.54972 | 17128 ft | 450 kts | 85° |
| 2026-05-08 01:00 | 50.96170 | 12.59936 | 17137 ft | 450 kts | 85° |
| 2026-05-08 01:00 | 50.96378 | 12.64818 | 17126 ft | 450 kts | 86° |
| 2026-05-08 01:01 | 50.96582 | 12.69767 | 17131 ft | 450 kts | 86° |
| 2026-05-08 01:01 | 50.96782 | 12.74756 | 17128 ft | 450 kts | 86° |
| 2026-05-08 01:01 | 50.96980 | 12.79709 | 17128 ft | 450 kts | 86° |
| 2026-05-08 01:01 | 50.97176 | 12.84691 | 17126 ft | 450 kts | 86° |
| 2026-05-08 01:02 | 50.97367 | 12.89596 | 17123 ft | 450 kts | 86° |
| 2026-05-08 01:02 | 50.97497 | 12.92952 | 17112 ft | 451 kts | 86° |
| 2026-05-08 01:02 | 50.97686 | 12.97861 | 17115 ft | 450 kts | 86° |
| 2026-05-08 01:02 | 50.97874 | 13.02819 | 17114 ft | 451 kts | 86° |
| 2026-05-08 01:03 | 50.98062 | 13.07830 | 17105 ft | 449 kts | 86° |
| 2026-05-08 01:03 | 50.98241 | 13.12659 | 16550 ft | 424 kts | 86° |
| 2026-05-08 01:03 | 50.98407 | 13.17194 | 15196 ft | 412 kts | 86° |
| 2026-05-08 01:03 | 50.98574 | 13.21761 | 13223 ft | 416 kts | 86° |
| 2026-05-08 01:04 | 50.98741 | 13.26350 | 11510 ft | 411 kts | 86° |
| 2026-05-08 01:04 | 50.98900 | 13.30811 | 9993 ft | 401 kts | 87° |
| 2026-05-08 01:04 | 50.99053 | 13.35162 | 8418 ft | 391 kts | 87° |
| 2026-05-08 01:04 | 50.99201 | 13.39412 | 6971 ft | 381 kts | 87° |
| 2026-05-08 01:05 | 50.99342 | 13.43546 | 5715 ft | 367 kts | 87° |
| 2026-05-08 01:05 | 50.99475 | 13.47492 | 4929 ft | 345 kts | 86° |
| 2026-05-08 01:05 | 50.99657 | 13.51126 | 4536 ft | 314 kts | 77° |
| 2026-05-08 01:05 | 51.00496 | 13.54130 | 4322 ft | 285 kts | 58° |
| 2026-05-08 01:06 | 51.01313 | 13.56916 | 4013 ft | 275 kts | 77° |
| 2026-05-08 01:06 | 51.01545 | 13.59881 | 3705 ft | 265 kts | 76° |
| 2026-05-08 01:06 | 51.02392 | 13.62306 | 3410 ft | 245 kts | 44° |
| 2026-05-08 01:06 | 51.03619 | 13.63956 | 3094 ft | 218 kts | 37° |
| 2026-05-08 01:07 | 51.04760 | 13.65358 | 2820 ft | 196 kts | 37° |
| 2026-05-08 01:07 | 51.05751 | 13.66584 | 2571 ft | 168 kts | 37° |
| 2026-05-08 01:07 | 51.06588 | 13.67633 | 2346 ft | 140 kts | 37° |
| 2026-05-08 01:07 | 51.07296 | 13.68531 | 2159 ft | 123 kts | 38° |
| 2026-05-08 01:08 | 51.07948 | 13.69368 | 1997 ft | 120 kts | 38° |
| 2026-05-08 01:08 | 51.08591 | 13.70210 | 1831 ft | 121 kts | 39° |
| 2026-05-08 01:08 | 51.09233 | 13.71063 | 1662 ft | 122 kts | 39° |
| 2026-05-08 01:08 | 51.09888 | 13.71943 | 1472 ft | 123 kts | 40° |
| 2026-05-08 01:09 | 51.10535 | 13.72807 | 1299 ft | 121 kts | 39° |
| 2026-05-08 01:09 | 51.11162 | 13.73676 | 1117 ft | 120 kts | 40° |
| 2026-05-08 01:09 | 51.11780 | 13.74540 | 1011 ft | 119 kts | 39° |
| 2026-05-08 01:09 | 51.12396 | 13.75377 | 848 ft | 114 kts | 39° |
| 2026-05-08 01:10 | 51.12970 | 13.76183 | 749 ft | 103 kts | 41° |
| 2026-05-08 01:10 | 51.13370 | 13.76724 | 734 ft | 46 kts | 38° |
| 2026-05-08 01:10 | 51.13533 | 13.76936 | 729 ft | 29 kts | 39° |
| 2026-05-08 01:10 | 51.13706 | 13.77160 | 728 ft | 36 kts | 38° |
| 2026-05-08 01:11 | 51.13888 | 13.77397 | 723 ft | 25 kts | 51° |
| 2026-05-08 01:11 | 51.13846 | 13.77609 | 720 ft | 24 kts | 129° |
| 2026-05-08 01:11 | 51.13797 | 13.77705 | 720 ft | 3 kts | 130° |
| 2026-05-08 01:11 | 51.13748 | 13.77715 | 715 ft | 11 kts | 208° |
| 2026-05-08 01:12 | 51.13679 | 13.77619 | 718 ft | 15 kts | 222° |
| 2026-05-08 01:12 | 51.13592 | 13.77495 | 722 ft | 19 kts | 221° |
| 2026-05-08 01:12 | 51.13482 | 13.77344 | 725 ft | 23 kts | 221° |
| 2026-05-08 01:12 | 51.13353 | 13.77166 | 728 ft | 26 kts | 220° |
| 2026-05-08 01:13 | 51.13209 | 13.76969 | 735 ft | 28 kts | 221° |
| 2026-05-08 01:13 | 51.13158 | 13.76900 | 739 ft | 28 kts | 220° |
| 2026-05-08 01:13 | 51.13039 | 13.76739 | 742 ft | 30 kts | 219° |
| 2026-05-08 01:14 | 51.12906 | 13.76549 | 744 ft | 20 kts | 220° |
| 2026-05-08 01:14 | 51.12821 | 13.76453 | 747 ft | 12 kts | 192° |
| 2026-05-08 01:14 | 51.12754 | 13.76529 | 748 ft | 12 kts | 129° |
| 2026-05-08 01:14 | 51.12720 | 13.76569 | 748 ft | 1 kts | 212° |
| 2026-05-08 01:15 | 51.12706 | 13.76548 | 751 ft | 6 kts | 220° |
| 2026-05-08 01:15 | 51.12674 | 13.76503 | 751 ft | 1 kts | 220° |
| 2026-05-08 01:15 | 51.12662 | 13.76488 | 751 ft | 2 kts | 220° |
| 2026-05-08 01:15 | 51.12660 | 13.76485 | 751 ft | 0 kts | 220° |